Time;durP1;ratioP1;P1;durP2;ratioP2;P2;SDS_P1;SDS_P2;PMS_P1;PMS_P2;Temp;Humidity;BMP_temperature;BMP_pressure;BME280_temperature;BME280_humidity;BME280_pressure;Samples;Min_cycle;Max_cycle;Signal;HPM_P1;HPM_P2
2024/02/07 00:00:02;;;;;;;10.18;1.17;;;;;;;;;;5076232;28;20771;-33
2024/02/07 00:02:27;;;;;;;5.60;0.90;;;;;;;;;;5074575;28;20016;-32
2024/02/07 00:04:52;;;;;;;7.00;1.50;;;;;;;;;;5076056;28;20040;-32
2024/02/07 00:07:18;;;;;;;3.58;1.42;;;;;;;;;;5076098;28;20051;-33
2024/02/07 00:09:43;;;;;;;8.87;1.50;;;;;;;;;;5076310;28;20024;-33
2024/02/07 00:12:08;;;;;;;8.80;1.10;;;;;;;;;;5075929;28;20605;-33
2024/02/07 00:14:33;;;;;;;5.63;1.00;;;;;;;;;;5075628;28;20278;-33
2024/02/07 00:16:58;;;;;;;5.50;0.95;;;;;;;;;;5076214;28;20017;-33
2024/02/07 00:19:24;;;;;;;7.10;1.00;;;;;;;;;;5075556;28;20027;-33
2024/02/07 00:21:49;;;;;;;3.55;0.80;;;;;;;;;;5075817;28;20020;-32
2024/02/07 00:24:14;;;;;;;7.57;0.95;;;;;;;;;;5075652;28;20459;-33
2024/02/07 00:26:39;;;;;;;5.20;1.10;;;;;;;;;;5075421;28;20091;-33
2024/02/07 00:29:04;;;;;;;5.00;1.13;;;;;;;;;;5075869;28;20255;-33
2024/02/07 00:31:30;;;;;;;7.57;1.13;;;;;;;;;;5075604;28;20281;-32
2024/02/07 00:33:55;;;;;;;4.85;0.70;;;;;;;;;;5075409;28;20286;-33
2024/02/07 00:36:20;;;;;;;9.57;1.42;;;;;;;;;;5075569;28;20019;-33
2024/02/07 00:38:45;;;;;;;6.37;1.03;;;;;;;;;;5075181;28;20016;-33
2024/02/07 00:41:20;;;;;;;5.78;1.15;;;;;;;;;;5075222;28;20258;-32
2024/02/07 00:43:45;;;;;;;6.43;1.02;;;;;;;;;;5075055;28;20017;-33
2024/02/07 00:46:11;;;;;;;9.60;1.30;;;;;;;;;;5075278;28;20013;-33
2024/02/07 00:48:36;;;;;;;6.87;1.20;;;;;;;;;;5074906;28;20017;-32
2024/02/07 00:51:01;;;;;;;4.47;0.93;;;;;;;;;;5074929;28;20296;-31
2024/02/07 00:53:27;;;;;;;6.85;1.15;;;;;;;;;;5074849;28;20020;-32
2024/02/07 00:55:52;;;;;;;9.00;1.27;;;;;;;;;;5075355;28;20017;-32
2024/02/07 00:58:17;;;;;;;9.32;1.30;;;;;;;;;;5075269;28;20021;-31
2024/02/07 01:00:43;;;;;;;8.70;1.33;;;;;;;;;;5075048;28;20070;-32
2024/02/07 01:03:08;;;;;;;8.63;1.33;;;;;;;;;;5074673;28;20211;-32
2024/02/07 01:05:33;;;;;;;8.80;1.10;;;;;;;;;;5074459;28;20278;-32
2024/02/07 01:07:58;;;;;;;10.07;1.20;;;;;;;;;;5074583;28;20017;-32
2024/02/07 01:10:23;;;;;;;11.50;1.43;;;;;;;;;;5074580;28;20491;-32
2024/02/07 01:12:48;;;;;;;12.47;1.87;;;;;;;;;;5074581;28;20346;-32
2024/02/07 01:15:14;;;;;;;9.23;1.35;;;;;;;;;;5072750;28;20282;-32
2024/02/07 01:17:39;;;;;;;5.35;0.98;;;;;;;;;;5074405;28;20016;-32
2024/02/07 01:20:08;;;;;;;11.00;1.23;;;;;;;;;;5074334;28;20016;-32
2024/02/07 01:22:33;;;;;;;8.95;1.40;;;;;;;;;;5074582;28;20012;-32
2024/02/07 01:24:59;;;;;;;5.73;1.00;;;;;;;;;;5074569;28;20117;-33
2024/02/07 01:27:24;;;;;;;12.45;1.63;;;;;;;;;;5074563;28;20364;-33
2024/02/07 01:29:49;;;;;;;8.40;1.30;;;;;;;;;;5074804;28;20021;-33
2024/02/07 01:32:16;;;;;;;7.80;1.27;;;;;;;;;;5074181;28;20385;-33
2024/02/07 01:34:41;;;;;;;6.97;1.00;;;;;;;;;;5074340;28;20278;-33
2024/02/07 01:37:07;;;;;;;9.27;1.40;;;;;;;;;;5074062;28;20019;-33
2024/02/07 01:39:34;;;;;;;6.47;1.55;;;;;;;;;;5074304;28;20251;-33
2024/02/07 01:42:01;;;;;;;4.47;1.00;;;;;;;;;;5075074;28;20401;-33
2024/02/07 01:44:28;;;;;;;8.45;1.25;;;;;;;;;;5074217;28;20021;-32
2024/02/07 01:47:11;;;;;;;10.18;1.20;;;;;;;;;;5073831;28;20044;-32
2024/02/07 01:49:36;;;;;;;3.08;0.70;;;;;;;;;;5074118;28;20023;-33
2024/02/07 01:52:02;;;;;;;3.53;1.25;;;;;;;;;;5074385;28;20028;-32
2024/02/07 01:54:27;;;;;;;12.35;1.70;;;;;;;;;;5073716;28;20024;-33
2024/02/07 01:56:52;;;;;;;8.10;1.20;;;;;;;;;;5073785;28;20020;-33
2024/02/07 01:59:18;;;;;;;9.55;1.27;;;;;;;;;;5074261;28;20017;-33
2024/02/07 02:01:44;;;;;;;7.35;1.20;;;;;;;;;;5073927;28;20112;-33
2024/02/07 02:04:09;;;;;;;6.63;1.50;;;;;;;;;;5073999;28;20052;-31
2024/02/07 02:06:35;;;;;;;10.40;1.80;;;;;;;;;;5073660;28;20502;-32
2024/02/07 02:09:00;;;;;;;8.13;1.52;;;;;;;;;;5073890;28;20282;-33
2024/02/07 02:11:31;;;;;;;6.93;1.50;;;;;;;;;;5073461;28;20071;-33
2024/02/07 02:13:56;;;;;;;7.05;1.20;;;;;;;;;;5073402;28;20275;-32
2024/02/07 02:16:22;;;;;;;6.45;1.05;;;;;;;;;;5073420;28;20486;-33
2024/02/07 02:18:47;;;;;;;8.20;1.13;;;;;;;;;;5073986;28;20012;-33
2024/02/07 02:21:19;;;;;;;13.40;1.67;;;;;;;;;;5073474;28;20019;-33
2024/02/07 02:23:50;;;;;;;8.13;1.45;;;;;;;;;;5073685;28;20722;-32
2024/02/07 02:26:27;;;;;;;7.70;1.13;;;;;;;;;;5073220;28;20070;-33
2024/02/07 02:29:14;;;;;;;8.20;1.63;;;;;;;;;;5072994;28;20062;-33
2024/02/07 02:31:42;;;;;;;9.15;1.25;;;;;;;;;;5072852;28;20020;-33
2024/02/07 02:34:08;;;;;;;7.80;1.30;;;;;;;;;;5071526;28;20029;-33
2024/02/07 02:36:33;;;;;;;6.22;1.52;;;;;;;;;;5072855;28;20020;-33
2024/02/07 02:38:58;;;;;;;6.88;1.10;;;;;;;;;;5072364;28;20024;-33
2024/02/07 02:41:24;;;;;;;8.98;1.27;;;;;;;;;;5073070;28;20020;-33
2024/02/07 02:43:49;;;;;;;9.45;1.70;;;;;;;;;;5072987;28;20017;-33
2024/02/07 02:46:14;;;;;;;8.70;1.90;;;;;;;;;;5073151;28;20044;-32
2024/02/07 02:48:39;;;;;;;7.35;0.98;;;;;;;;;;5073160;28;20048;-32
2024/02/07 02:51:04;;;;;;;7.53;1.52;;;;;;;;;;5073370;28;20095;-33
2024/02/07 02:53:33;;;;;;;5.88;1.00;;;;;;;;;;5073124;28;20020;-33
2024/02/07 02:55:58;;;;;;;9.70;1.52;;;;;;;;;;5073581;28;20406;-33
2024/02/07 02:58:29;;;;;;;11.70;1.50;;;;;;;;;;5073095;28;20009;-33
2024/02/07 03:00:56;;;;;;;9.48;1.30;;;;;;;;;;5073265;28;20024;-33
2024/02/07 03:03:21;;;;;;;9.85;1.40;;;;;;;;;;5073233;28;20036;-33
2024/02/07 03:05:57;;;;;;;12.10;2.08;;;;;;;;;;5072884;28;20076;-33
2024/02/07 03:08:29;;;;;;;5.47;1.30;;;;;;;;;;5073007;28;20027;-33
2024/02/07 03:10:55;;;;;;;5.25;1.58;;;;;;;;;;5073250;28;20024;-32
2024/02/07 03:13:20;;;;;;;8.57;1.60;;;;;;;;;;5072894;28;20079;-33
2024/02/07 03:15:45;;;;;;;8.32;1.42;;;;;;;;;;5073120;28;20521;-32
2024/02/07 03:18:10;;;;;;;8.02;1.65;;;;;;;;;;5073143;28;20016;-32
2024/02/07 03:20:35;;;;;;;7.47;1.27;;;;;;;;;;5073161;28;20013;-32
2024/02/07 03:23:01;;;;;;;9.93;1.57;;;;;;;;;;5072864;28;20112;-32
2024/02/07 03:25:26;;;;;;;9.87;1.53;;;;;;;;;;5073396;28;20247;-33
2024/02/07 03:27:51;;;;;;;17.45;1.45;;;;;;;;;;5073063;28;20259;-33
2024/02/07 03:30:20;;;;;;;9.57;1.25;;;;;;;;;;5073315;28;20028;-33
2024/02/07 03:32:45;;;;;;;12.55;2.33;;;;;;;;;;5073027;28;20490;-33
2024/02/07 03:35:11;;;;;;;14.35;1.67;;;;;;;;;;5072727;28;20013;-33
2024/02/07 03:37:36;;;;;;;10.15;1.42;;;;;;;;;;5074735;28;20016;-33
2024/02/07 03:40:05;;;;;;;7.88;1.52;;;;;;;;;;5076373;28;20027;-33
2024/02/07 03:42:30;;;;;;;13.27;1.70;;;;;;;;;;5076573;28;20107;-33
2024/02/07 03:44:59;;;;;;;10.70;1.48;;;;;;;;;;5076845;28;20047;-33
2024/02/07 03:47:24;;;;;;;14.88;1.65;;;;;;;;;;5076126;28;20021;-32
2024/02/07 03:49:50;;;;;;;12.02;1.50;;;;;;;;;;5076648;28;20054;-33
2024/02/07 03:52:15;;;;;;;8.10;1.08;;;;;;;;;;5074930;28;20027;-33
2024/02/07 03:54:49;;;;;;;7.27;1.10;;;;;;;;;;5076001;28;20441;-33
2024/02/07 03:57:15;;;;;;;5.60;1.25;;;;;;;;;;5075885;28;20263;-33
2024/02/07 03:59:40;;;;;;;7.00;1.13;;;;;;;;;;5075954;28;20025;-33
2024/02/07 04:02:06;;;;;;;10.97;1.57;;;;;;;;;;5074409;28;20401;-32
2024/02/07 04:04:31;;;;;;;11.18;1.27;;;;;;;;;;5075866;28;20692;-33
2024/02/07 04:06:58;;;;;;;13.37;1.73;;;;;;;;;;5076383;28;20103;-33
2024/02/07 04:09:23;;;;;;;7.82;1.20;;;;;;;;;;5075730;28;20343;-33
2024/02/07 05:16:45;;;;;;;5.75;1.25;;;;;;;;;;5074808;28;20027;-33
2024/02/07 05:19:10;;;;;;;14.43;1.52;;;;;;;;;;5074657;28;20039;-33
2024/02/07 05:21:36;;;;;;;10.47;1.20;;;;;;;;;;5074386;28;20017;-32
2024/02/07 05:24:02;;;;;;;9.45;1.33;;;;;;;;;;5074618;28;20262;-33
2024/02/07 05:26:27;;;;;;;6.97;1.30;;;;;;;;;;5074245;28;20095;-33
2024/02/07 05:28:52;;;;;;;7.97;1.70;;;;;;;;;;5074839;28;20111;-33
2024/02/07 05:31:17;;;;;;;14.43;1.70;;;;;;;;;;5074390;28;20629;-33
2024/02/07 05:33:42;;;;;;;11.23;1.57;;;;;;;;;;5074410;28;20263;-33
2024/02/07 05:36:08;;;;;;;7.65;1.52;;;;;;;;;;5073016;28;20361;-33
2024/02/07 05:38:33;;;;;;;8.43;1.52;;;;;;;;;;5074402;28;20020;-33
2024/02/07 05:40:59;;;;;;;10.23;1.75;;;;;;;;;;5074045;28;20020;-33
2024/02/07 05:43:25;;;;;;;8.27;1.60;;;;;;;;;;5074064;28;20410;-34
2024/02/07 05:45:50;;;;;;;16.50;2.40;;;;;;;;;;5074211;28;20013;-33
2024/02/07 05:48:15;;;;;;;9.60;1.83;;;;;;;;;;5073854;28;20020;-33
2024/02/07 05:50:40;;;;;;;8.20;1.60;;;;;;;;;;5073817;28;20247;-33
2024/02/07 05:53:06;;;;;;;9.82;1.30;;;;;;;;;;5073732;28;20254;-33
2024/02/07 05:55:31;;;;;;;9.63;1.92;;;;;;;;;;5073623;28;20052;-33
2024/02/07 05:57:57;;;;;;;9.95;2.20;;;;;;;;;;5074244;28;20055;-35
2024/02/07 06:00:22;;;;;;;14.05;2.28;;;;;;;;;;5072773;28;20016;-32
2024/02/07 06:02:47;;;;;;;14.32;2.33;;;;;;;;;;5073965;28;20020;-33
2024/02/07 06:05:12;;;;;;;11.27;2.00;;;;;;;;;;5073534;28;20059;-32
2024/02/07 06:07:37;;;;;;;14.68;1.95;;;;;;;;;;5073837;28;20259;-33
2024/02/07 06:10:03;;;;;;;11.18;1.90;;;;;;;;;;5073830;28;20490;-32
2024/02/07 06:12:28;;;;;;;8.18;2.15;;;;;;;;;;5073471;28;20116;-32
2024/02/07 06:14:56;;;;;;;14.35;2.53;;;;;;;;;;5073405;28;20529;-33
2024/02/07 06:17:21;;;;;;;16.73;2.03;;;;;;;;;;5073762;28;20066;-33
2024/02/07 06:19:46;;;;;;;16.43;2.30;;;;;;;;;;5073417;28;20013;-33
2024/02/07 06:22:12;;;;;;;15.52;3.17;;;;;;;;;;5073441;28;20254;-33
2024/02/07 06:24:37;;;;;;;12.32;2.20;;;;;;;;;;5073323;28;20418;-33
2024/02/07 06:27:02;;;;;;;13.70;2.10;;;;;;;;;;5073586;28;20027;-33
2024/02/07 06:29:28;;;;;;;14.27;2.63;;;;;;;;;;5073379;28;20017;-33
2024/02/07 06:31:54;;;;;;;11.65;1.80;;;;;;;;;;5073506;28;20028;-33
2024/02/07 06:34:20;;;;;;;11.25;1.90;;;;;;;;;;5073766;28;20024;-33
2024/02/07 06:36:46;;;;;;;10.48;2.33;;;;;;;;;;5073283;28;20024;-33
2024/02/07 06:39:11;;;;;;;12.63;2.13;;;;;;;;;;5073267;28;20023;-33
2024/02/07 06:41:36;;;;;;;16.30;2.77;;;;;;;;;;5073468;28;20013;-33
2024/02/07 06:44:01;;;;;;;13.83;2.30;;;;;;;;;;5073766;28;20246;-33
2024/02/07 06:46:29;;;;;;;12.87;2.40;;;;;;;;;;5073153;28;20279;-33
2024/02/07 06:48:54;;;;;;;19.70;2.78;;;;;;;;;;5073688;28;20249;-32
2024/02/07 06:51:19;;;;;;;13.57;2.97;;;;;;;;;;5072692;28;20096;-32
2024/02/07 06:53:44;;;;;;;15.80;2.47;;;;;;;;;;5070207;28;20343;-33
2024/02/07 06:56:10;;;;;;;17.37;2.60;;;;;;;;;;5070419;28;20305;-33
2024/02/07 06:58:35;;;;;;;12.52;2.75;;;;;;;;;;5070257;28;20353;-33
2024/02/07 07:01:00;;;;;;;14.70;2.70;;;;;;;;;;5070250;28;20379;-33
2024/02/07 07:03:26;;;;;;;13.40;2.40;;;;;;;;;;5070439;28;20246;-33
2024/02/07 07:05:51;;;;;;;12.07;2.35;;;;;;;;;;5069836;28;20044;-33
2024/02/07 07:08:16;;;;;;;16.17;3.03;;;;;;;;;;5070251;28;20558;-33
2024/02/07 07:10:42;;;;;;;12.20;2.70;;;;;;;;;;5071979;28;20031;-33
2024/02/07 07:13:07;;;;;;;17.80;3.28;;;;;;;;;;5074439;28;20266;-33
2024/02/07 07:15:32;;;;;;;14.65;2.80;;;;;;;;;;5075081;28;20625;-32
2024/02/07 07:17:57;;;;;;;13.97;2.50;;;;;;;;;;5075347;28;20081;-32
2024/02/07 07:20:22;;;;;;;16.93;2.63;;;;;;;;;;5076019;28;20254;-32
2024/02/07 07:22:48;;;;;;;18.42;3.15;;;;;;;;;;5075789;28;20251;-32
2024/02/07 07:25:13;;;;;;;14.97;2.97;;;;;;;;;;5075838;28;20024;-32
2024/02/07 07:27:38;;;;;;;14.30;2.90;;;;;;;;;;5076315;28;20266;-32
2024/02/07 07:30:04;;;;;;;15.27;3.37;;;;;;;;;;5076378;28;20020;-32
2024/02/07 07:32:29;;;;;;;11.57;2.75;;;;;;;;;;5076677;28;20312;-32
2024/02/07 07:34:54;;;;;;;13.33;3.03;;;;;;;;;;5075586;28;20539;-32
2024/02/07 07:37:20;;;;;;;21.27;3.23;;;;;;;;;;5076143;28;20262;-33
2024/02/07 07:39:45;;;;;;;21.90;4.65;;;;;;;;;;5075835;28;20247;-33
2024/02/07 07:42:11;;;;;;;22.25;4.05;;;;;;;;;;5075487;28;20357;-33
2024/02/07 07:44:38;;;;;;;17.55;4.35;;;;;;;;;;5075408;28;20416;-33
2024/02/07 07:47:03;;;;;;;18.35;4.28;;;;;;;;;;5075681;28;20336;-33
2024/02/07 07:49:28;;;;;;;19.07;3.77;;;;;;;;;;5075570;28;20020;-40
2024/02/07 07:51:53;;;;;;;18.90;3.80;;;;;;;;;;5075809;28;20258;-33
2024/02/07 07:54:19;;;;;;;16.70;3.80;;;;;;;;;;5074053;28;20291;-33
2024/02/07 07:56:44;;;;;;;18.40;3.97;;;;;;;;;;5075260;28;20633;-36
2024/02/07 07:59:09;;;;;;;15.90;3.00;;;;;;;;;;5075237;28;20286;-32
2024/02/07 08:01:34;;;;;;;15.38;2.70;;;;;;;;;;5075471;28;20746;-33
2024/02/07 08:04:00;;;;;;;17.55;2.97;;;;;;;;;;5075260;28;20021;-33
2024/02/07 08:06:25;;;;;;;18.77;3.42;;;;;;;;;;5074974;28;20120;-32
2024/02/07 08:08:50;;;;;;;21.92;3.28;;;;;;;;;;5075139;28;20464;-32
2024/02/07 08:11:15;;;;;;;23.92;3.70;;;;;;;;;;5075894;28;20016;-32
2024/02/07 08:13:40;;;;;;;20.40;3.92;;;;;;;;;;5075329;28;20334;-32
2024/02/07 08:16:06;;;;;;;15.07;4.07;;;;;;;;;;5074948;28;20020;-32
2024/02/07 08:18:32;;;;;;;20.88;3.95;;;;;;;;;;5075153;28;20262;-32
2024/02/07 08:20:57;;;;;;;18.40;3.85;;;;;;;;;;5075224;28;20024;-31
2024/02/07 08:23:23;;;;;;;30.23;4.10;;;;;;;;;;5073749;28;20028;-32
2024/02/07 08:25:48;;;;;;;25.63;3.30;;;;;;;;;;5074776;28;20516;-32
2024/02/07 08:28:13;;;;;;;17.13;2.70;;;;;;;;;;5074802;28;20104;-33
2024/02/07 08:30:38;;;;;;;21.77;2.88;;;;;;;;;;5074874;28;20150;-32
2024/02/07 08:33:04;;;;;;;26.27;3.60;;;;;;;;;;5075063;28;20069;-33
2024/02/07 08:35:29;;;;;;;19.90;3.55;;;;;;;;;;5075022;28;20463;-36
2024/02/07 08:37:58;;;;;;;16.50;2.77;;;;;;;;;;5074966;28;20017;-32
2024/02/07 08:40:30;;;;;;;23.70;3.47;;;;;;;;;;5074791;28;20304;-32
2024/02/07 08:42:55;;;;;;;22.08;3.40;;;;;;;;;;5074458;28;20411;-32
2024/02/07 08:45:21;;;;;;;19.60;3.00;;;;;;;;;;5074272;28;20016;-33
2024/02/07 08:47:46;;;;;;;11.43;2.80;;;;;;;;;;5074293;28;20488;-32
2024/02/07 08:50:12;;;;;;;25.45;3.33;;;;;;;;;;5074175;28;20349;-32
2024/02/07 08:52:38;;;;;;;25.73;3.28;;;;;;;;;;5075198;28;20119;-32
2024/02/07 08:55:03;;;;;;;16.40;2.97;;;;;;;;;;5074435;28;20020;-33
2024/02/07 08:57:29;;;;;;;20.05;3.03;;;;;;;;;;5074579;28;20127;-32
2024/02/07 08:59:54;;;;;;;27.35;3.40;;;;;;;;;;5074580;28;20024;-34
2024/02/07 09:02:19;;;;;;;16.57;3.10;;;;;;;;;;5074589;28;20042;-33
2024/02/07 09:04:45;;;;;;;16.77;2.88;;;;;;;;;;5073976;28;20278;-32
2024/02/07 09:07:10;;;;;;;20.85;3.08;;;;;;;;;;5074046;28;20048;-33
2024/02/07 09:09:35;;;;;;;18.33;2.80;;;;;;;;;;5073993;28;20020;-32
2024/02/07 09:12:00;;;;;;;20.80;3.08;;;;;;;;;;5074301;28;20262;-32
2024/02/07 09:14:26;;;;;;;18.50;2.50;;;;;;;;;;5073947;28;20119;-32
2024/02/07 09:16:51;;;;;;;18.83;2.45;;;;;;;;;;5074058;28;20039;-32
2024/02/07 09:19:16;;;;;;;18.00;2.80;;;;;;;;;;5073726;28;20017;-32
2024/02/07 09:21:41;;;;;;;23.55;3.05;;;;;;;;;;5074020;28;20021;-36
2024/02/07 09:24:07;;;;;;;18.57;2.57;;;;;;;;;;5073920;28;20027;-32
2024/02/07 09:26:32;;;;;;;19.35;2.97;;;;;;;;;;5073889;28;20309;-33
2024/02/07 09:28:58;;;;;;;10.85;2.20;;;;;;;;;;5073780;28;20013;-32
2024/02/07 09:31:23;;;;;;;21.20;2.80;;;;;;;;;;5073327;28;20020;-32
2024/02/07 09:33:48;;;;;;;18.30;2.60;;;;;;;;;;5073760;28;20034;-33
2024/02/07 09:36:14;;;;;;;16.27;2.47;;;;;;;;;;5074655;28;20415;-34
2024/02/07 09:38:39;;;;;;;20.80;2.67;;;;;;;;;;5072839;28;20278;-33
2024/02/07 09:41:04;;;;;;;19.17;2.40;;;;;;;;;;5074131;28;20100;-33
2024/02/07 09:43:30;;;;;;;12.27;2.40;;;;;;;;;;5074603;28;20255;-32
2024/02/07 09:45:57;;;;;;;19.27;2.90;;;;;;;;;;5073111;28;20096;-32
2024/02/07 09:48:24;;;;;;;17.45;2.50;;;;;;;;;;5073871;28;20530;-33
2024/02/07 09:50:51;;;;;;;21.27;2.60;;;;;;;;;;5072612;28;20107;-33
2024/02/07 09:53:18;;;;;;;12.93;2.00;;;;;;;;;;5074086;28;20027;-32
2024/02/07 09:55:44;;;;;;;19.48;2.33;;;;;;;;;;5074420;28;20407;-33
2024/02/07 09:58:09;;;;;;;16.38;2.47;;;;;;;;;;5073731;28;20071;-34
2024/02/07 10:00:35;;;;;;;13.50;2.45;;;;;;;;;;5073858;28;20025;-33
2024/02/07 10:03:01;;;;;;;15.52;2.28;;;;;;;;;;5073793;28;20020;-33
2024/02/07 10:05:31;;;;;;;15.88;2.20;;;;;;;;;;5073642;28;20056;-33
2024/02/07 10:07:57;;;;;;;15.27;1.80;;;;;;;;;;5073693;28;20375;-33
2024/02/07 10:10:22;;;;;;;12.73;2.20;;;;;;;;;;5073573;28;20025;-34
2024/02/07 10:12:47;;;;;;;17.85;2.30;;;;;;;;;;5073860;28;20424;-34
2024/02/07 10:15:16;;;;;;;20.27;2.28;;;;;;;;;;5073786;28;20112;-34
2024/02/07 10:17:41;;;;;;;14.70;2.33;;;;;;;;;;5073560;28;20019;-32
2024/02/07 10:20:10;;;;;;;19.25;2.58;;;;;;;;;;5073806;28;20021;-34
2024/02/07 10:22:41;;;;;;;11.35;2.05;;;;;;;;;;5073505;28;20024;-33
2024/02/07 10:25:16;;;;;;;15.88;2.33;;;;;;;;;;5072481;28;20023;-34
2024/02/07 10:27:41;;;;;;;18.80;2.42;;;;;;;;;;5073745;28;20074;-32
2024/02/07 10:30:08;;;;;;;17.85;2.58;;;;;;;;;;5072396;28;20020;-33
2024/02/07 10:32:34;;;;;;;17.77;2.10;;;;;;;;;;5073318;28;20039;-34
2024/02/07 10:34:59;;;;;;;18.13;2.83;;;;;;;;;;5073395;28;20017;-34
2024/02/07 10:37:24;;;;;;;15.07;2.33;;;;;;;;;;5073370;28;20099;-34
2024/02/07 10:40:00;;;;;;;12.02;2.70;;;;;;;;;;5073580;28;20251;-34
2024/02/07 10:42:25;;;;;;;17.30;2.55;;;;;;;;;;5073887;28;20024;-33
2024/02/07 10:45:00;;;;;;;16.02;2.65;;;;;;;;;;5073383;28;20375;-33
2024/02/07 10:47:25;;;;;;;16.67;3.28;;;;;;;;;;5075588;28;20106;-34
2024/02/07 10:49:51;;;;;;;11.57;2.00;;;;;;;;;;5077645;28;20097;-32
2024/02/07 10:52:17;;;;;;;13.95;2.10;;;;;;;;;;5077379;28;20254;-32
2024/02/07 10:54:43;;;;;;;12.95;2.05;;;;;;;;;;5077220;28;20407;-32
2024/02/07 10:57:12;;;;;;;11.45;1.95;;;;;;;;;;5077700;28;20028;-33
2024/02/07 10:59:39;;;;;;;12.68;1.90;;;;;;;;;;5075946;28;20021;-34
2024/02/07 11:02:10;;;;;;;16.40;2.50;;;;;;;;;;5077211;28;20383;-33
2024/02/07 11:04:36;;;;;;;10.60;2.38;;;;;;;;;;5076934;28;20381;-33
2024/02/07 11:07:02;;;;;;;10.65;2.20;;;;;;;;;;5077332;28;20377;-33
2024/02/07 11:09:27;;;;;;;13.63;2.40;;;;;;;;;;5076982;28;20027;-33
2024/02/07 11:11:53;;;;;;;11.45;2.00;;;;;;;;;;5077125;28;20012;-33
2024/02/07 11:14:18;;;;;;;10.23;2.25;;;;;;;;;;5077020;28;20420;-34
2024/02/07 11:16:43;;;;;;;15.70;2.22;;;;;;;;;;5077459;28;20020;-33
2024/02/07 11:19:09;;;;;;;17.10;2.38;;;;;;;;;;5077099;28;20012;-33
2024/02/07 11:21:36;;;;;;;13.98;2.42;;;;;;;;;;5077030;28;20403;-33
2024/02/07 11:24:02;;;;;;;10.43;2.25;;;;;;;;;;5076901;28;20028;-33
2024/02/07 11:26:27;;;;;;;14.70;2.35;;;;;;;;;;5076558;28;20012;-33
2024/02/07 11:28:53;;;;;;;14.95;2.65;;;;;;;;;;5076804;28;20022;-33
2024/02/07 11:31:18;;;;;;;12.65;2.40;;;;;;;;;;5076808;28;20407;-33
2024/02/07 11:33:47;;;;;;;12.95;2.50;;;;;;;;;;5077046;28;20016;-33
2024/02/07 11:36:16;;;;;;;11.20;1.88;;;;;;;;;;5076567;28;20027;-33
2024/02/07 11:38:47;;;;;;;9.20;2.05;;;;;;;;;;5076626;28;20414;-33
2024/02/07 11:41:15;;;;;;;10.80;2.45;;;;;;;;;;5076469;28;20023;-33
2024/02/07 11:43:42;;;;;;;10.63;2.45;;;;;;;;;;5076305;28;20051;-33
2024/02/07 11:46:08;;;;;;;12.63;2.50;;;;;;;;;;5076176;28;20027;-33
2024/02/07 11:48:38;;;;;;;11.25;2.70;;;;;;;;;;5076152;28;20043;-33
2024/02/07 11:51:10;;;;;;;14.48;2.50;;;;;;;;;;5076271;28;20100;-33
2024/02/07 11:53:39;;;;;;;14.40;2.65;;;;;;;;;;5076377;28;20446;-33
2024/02/07 11:56:17;;;;;;;13.55;2.25;;;;;;;;;;5076233;28;20073;-33
2024/02/07 11:58:44;;;;;;;10.30;2.60;;;;;;;;;;5076335;28;20103;-33
2024/02/07 12:01:09;;;;;;;13.55;2.75;;;;;;;;;;5076251;28;20027;-33
2024/02/07 12:03:35;;;;;;;11.10;2.30;;;;;;;;;;5074602;28;20016;-33
2024/02/07 12:06:00;;;;;;;11.38;2.17;;;;;;;;;;5075841;28;20088;-33
2024/02/07 12:08:26;;;;;;;12.15;2.60;;;;;;;;;;5075837;28;20016;-33
2024/02/07 12:10:52;;;;;;;12.38;2.35;;;;;;;;;;5076108;28;20068;-33
2024/02/07 12:13:17;;;;;;;15.88;2.38;;;;;;;;;;5075789;28;20364;-33
2024/02/07 12:15:43;;;;;;;10.75;1.98;;;;;;;;;;5075969;28;20086;-33
2024/02/07 12:18:08;;;;;;;13.00;2.10;;;;;;;;;;5075675;28;20024;-33
2024/02/07 12:20:33;;;;;;;16.92;2.28;;;;;;;;;;5075655;28;20265;-33
2024/02/07 12:22:59;;;;;;;10.30;2.10;;;;;;;;;;5075591;28;20012;-35
2024/02/07 12:25:24;;;;;;;12.70;1.70;;;;;;;;;;5075793;28;20266;-33
2024/02/07 12:27:49;;;;;;;13.47;2.00;;;;;;;;;;5075497;28;20017;-33
2024/02/07 12:30:14;;;;;;;14.30;1.60;;;;;;;;;;5075795;28;20250;-33
2024/02/07 12:32:40;;;;;;;10.17;2.23;;;;;;;;;;5075709;28;20273;-33
2024/02/07 12:35:05;;;;;;;12.02;1.70;;;;;;;;;;5075401;28;20274;-33
2024/02/07 12:37:30;;;;;;;6.78;1.95;;;;;;;;;;5075298;28;20012;-33
2024/02/07 12:39:56;;;;;;;7.83;1.97;;;;;;;;;;5075241;28;20017;-33
2024/02/07 12:42:22;;;;;;;11.87;1.93;;;;;;;;;;5075191;28;20459;-33
2024/02/07 12:44:51;;;;;;;8.85;1.58;;;;;;;;;;5075277;28;20357;-33
2024/02/07 12:47:17;;;;;;;11.68;2.47;;;;;;;;;;5074981;28;20021;-41
2024/02/07 12:49:43;;;;;;;7.10;1.70;;;;;;;;;;5073628;28;20027;-34
2024/02/07 12:52:09;;;;;;;9.25;1.83;;;;;;;;;;5074273;28;20024;-32
2024/02/07 12:54:35;;;;;;;9.13;1.63;;;;;;;;;;5073541;28;20020;-33
2024/02/07 12:57:00;;;;;;;12.13;1.83;;;;;;;;;;5074464;28;20028;-33
2024/02/07 12:59:29;;;;;;;9.75;1.80;;;;;;;;;;5074766;28;20027;-34
2024/02/07 13:01:54;;;;;;;7.03;1.40;;;;;;;;;;5075276;28;20412;-34
2024/02/07 13:04:20;;;;;;;10.52;1.60;;;;;;;;;;5074620;28;20047;-34
2024/02/07 13:06:45;;;;;;;9.17;1.67;;;;;;;;;;5074951;28;20028;-34
2024/02/07 13:09:10;;;;;;;11.77;1.58;;;;;;;;;;5074749;28;20283;-34
2024/02/07 13:11:35;;;;;;;4.83;1.10;;;;;;;;;;5073704;28;20027;-34
2024/02/07 13:14:00;;;;;;;7.30;1.50;;;;;;;;;;5074611;28;20255;-33
2024/02/07 13:16:28;;;;;;;10.75;1.38;;;;;;;;;;5074504;28;20275;-34
2024/02/07 13:18:54;;;;;;;12.95;1.73;;;;;;;;;;5074509;28;20372;-34
2024/02/07 13:21:20;;;;;;;10.98;1.70;;;;;;;;;;5074775;28;20043;-34
2024/02/07 13:23:45;;;;;;;10.60;1.52;;;;;;;;;;5074370;28;20468;-34
2024/02/07 13:26:10;;;;;;;8.95;1.65;;;;;;;;;;5074347;28;20099;-34
2024/02/07 13:28:36;;;;;;;12.87;2.67;;;;;;;;;;5074305;28;20022;-34
2024/02/07 13:31:03;;;;;;;11.90;1.77;;;;;;;;;;5074581;28;20328;-34
2024/02/07 13:33:28;;;;;;;12.70;1.77;;;;;;;;;;5074404;28;20096;-34
2024/02/07 13:35:54;;;;;;;6.17;1.27;;;;;;;;;;5074074;28;20100;-34
2024/02/07 13:38:19;;;;;;;10.00;1.90;;;;;;;;;;5074172;28;20250;-34
2024/02/07 13:40:45;;;;;;;10.82;1.77;;;;;;;;;;5074327;28;20250;-35
2024/02/07 13:43:10;;;;;;;10.13;1.75;;;;;;;;;;5073943;28;20016;-33
2024/02/07 13:45:36;;;;;;;8.27;1.50;;;;;;;;;;5074090;28;20067;-34
2024/02/07 13:48:01;;;;;;;15.17;2.00;;;;;;;;;;5073904;28;20251;-34
2024/02/07 13:50:26;;;;;;;13.85;1.90;;;;;;;;;;5074126;28;20277;-33
2024/02/07 13:52:51;;;;;;;8.67;1.40;;;;;;;;;;5073825;28;20020;-33
2024/02/07 13:55:18;;;;;;;9.47;1.43;;;;;;;;;;5073689;28;20274;-33
2024/02/07 13:57:43;;;;;;;16.25;1.83;;;;;;;;;;5073790;28;20705;-33
2024/02/07 14:00:08;;;;;;;10.17;1.60;;;;;;;;;;5072515;28;20044;-34
2024/02/07 14:02:33;;;;;;;14.32;1.95;;;;;;;;;;5074233;28;20258;-34
2024/02/07 14:04:59;;;;;;;8.30;1.35;;;;;;;;;;5073638;28;20044;-34
2024/02/07 14:07:25;;;;;;;11.43;1.60;;;;;;;;;;5073582;28;20036;-34
2024/02/07 14:09:50;;;;;;;9.65;1.77;;;;;;;;;;5073852;28;20024;-34
2024/02/07 14:12:15;;;;;;;14.87;1.73;;;;;;;;;;5073538;28;20016;-33
2024/02/07 14:14:40;;;;;;;15.07;3.80;;;;;;;;;;5073476;28;20270;-34
2024/02/07 14:17:05;;;;;;;8.77;1.60;;;;;;;;;;5073436;28;20279;-34
2024/02/07 14:19:31;;;;;;;10.98;1.80;;;;;;;;;;5073363;28;20243;-34
2024/02/07 14:21:56;;;;;;;9.60;1.40;;;;;;;;;;5072931;28;20012;-34
2024/02/07 14:24:21;;;;;;;12.00;1.83;;;;;;;;;;5073442;28;20254;-34
2024/02/07 14:26:46;;;;;;;6.83;1.20;;;;;;;;;;5073375;28;20021;-34
2024/02/07 14:29:11;;;;;;;13.68;1.38;;;;;;;;;;5073897;28;20297;-34
2024/02/07 14:31:37;;;;;;;15.23;2.15;;;;;;;;;;5073386;28;20148;-34
2024/02/07 14:34:02;;;;;;;9.77;2.05;;;;;;;;;;5073654;28;20016;-34
2024/02/07 14:36:27;;;;;;;9.05;1.60;;;;;;;;;;5073452;28;20016;-34
2024/02/07 14:38:52;;;;;;;9.43;1.37;;;;;;;;;;5073850;28;20048;-34
2024/02/07 14:41:17;;;;;;;10.43;1.73;;;;;;;;;;5073309;28;20247;-34
2024/02/07 14:43:43;;;;;;;9.63;1.77;;;;;;;;;;5073216;28;20382;-34
2024/02/07 14:46:08;;;;;;;9.53;1.60;;;;;;;;;;5073840;28;20028;-34
2024/02/07 14:48:33;;;;;;;7.97;1.50;;;;;;;;;;5073469;28;20819;-34
2024/02/07 14:50:58;;;;;;;10.85;1.55;;;;;;;;;;5073201;28;20426;-34
2024/02/07 14:53:23;;;;;;;9.85;1.65;;;;;;;;;;5073408;28;20073;-34
2024/02/07 14:55:49;;;;;;;6.20;1.60;;;;;;;;;;5073295;28;20046;-34
2024/02/07 14:58:14;;;;;;;6.72;1.20;;;;;;;;;;5073385;28;20078;-34
2024/02/07 15:00:40;;;;;;;11.77;2.00;;;;;;;;;;5073353;28;20020;-34
2024/02/07 15:03:06;;;;;;;15.60;1.50;;;;;;;;;;5073374;28;20456;-34
2024/02/07 15:05:31;;;;;;;9.43;1.35;;;;;;;;;;5072846;28;20055;-33
2024/02/07 15:07:57;;;;;;;9.48;1.30;;;;;;;;;;5073565;28;20056;-34
2024/02/07 15:10:22;;;;;;;8.10;1.60;;;;;;;;;;5072977;28;20016;-34
2024/02/07 15:12:48;;;;;;;9.73;1.90;;;;;;;;;;5073180;28;20033;-43
2024/02/07 15:15:13;;;;;;;12.13;1.73;;;;;;;;;;5072926;28;20368;-33
2024/02/07 15:17:39;;;;;;;14.40;2.30;;;;;;;;;;5072945;28;20251;-34
2024/02/07 15:20:05;;;;;;;12.52;2.28;;;;;;;;;;5071694;28;20032;-34
2024/02/07 15:22:31;;;;;;;9.48;1.35;;;;;;;;;;5072958;28;20028;-34
2024/02/07 15:24:56;;;;;;;8.38;1.48;;;;;;;;;;5072831;28;20371;-34
2024/02/07 15:27:21;;;;;;;10.65;1.40;;;;;;;;;;5072909;28;20021;-34
2024/02/07 15:29:46;;;;;;;9.70;1.63;;;;;;;;;;5073367;28;20027;-33
2024/02/07 15:32:12;;;;;;;6.90;1.53;;;;;;;;;;5073322;28;20273;-33